Latest Weather Observations for Avalon

IDV60801

Issued at 10:42 am EST Wednesday 28 September 2022 (issued every 10 minutes, with the page automatically refreshed every 10 minutes)

About weather observations | Map of weather stations | Latest weather observations for VIC | Other Formats
Station Details ID: 087113 Name: AVALON AIRPORT Lat: -38.03 Lon: 144.48 Height: 10.6 m
Data from the previous 72 hours. | See also: Recent months at Avalon
Date/Time
EST
Temp
°C
App
Temp
°C
Dew
Point
°C
Rel
Hum
%
Delta-T
°C
Wind Press
QNH
hPa
Press
MSL
hPa
Rain since
9am
mm
Dir  Spd
km/h
Gust
km/h
Spd
kts
Gust
kts
28/10:30am 14.1 8.8 11.1 82 1.6 S 30 39 16 21 1020.2 1020.2 0.0
28/10:00am 13.8 8.5 11.1 84 1.4 S 30 35 16 19 1020.2 1020.2 0.0
28/09:30am 14.0 8.3 11.2 83 1.5 S 32 39 17 21 1020.0 1020.0 0.0
28/09:21am 14.0 9.2 11.7 86 1.2 S 28 35 15 19 1020.0 1020.0 0.0
28/09:00am 13.3 8.0 11.4 88 1.0 S 30 37 16 20 1019.8 1019.8 3.0
28/08:46am 13.3 8.8 11.4 88 1.0 S 26 35 14 19 1019.7 1019.7 3.0
28/08:30am 13.2 8.7 11.3 88 1.0 S 26 35 14 19 1019.5 1019.5 3.0
28/08:00am 13.0 8.9 11.6 91 0.7 S 24 30 13 16 1019.1 1019.1 3.0
28/07:53am 12.8 8.2 11.0 89 0.9 S 26 35 14 19 1019.1 1019.1 3.0
28/07:30am 12.7 8.1 11.1 90 0.8 S 26 35 14 19 1018.8 1018.8 3.0
28/07:00am 12.6 8.1 11.3 92 0.7 S 26 32 14 17 1018.4 1018.4 3.0
28/06:48am 12.6 8.5 11.3 92 0.7 S 24 35 13 19 1018.1 1018.1 3.0
28/06:30am 12.5 8.3 11.2 92 0.7 S 24 33 13 18 1017.8 1017.8 3.0
28/06:24am 12.5 8.0 11.4 93 0.6 S 26 33 14 18 1017.7 1017.7 3.0
28/06:06am 12.3 8.2 11.4 94 0.5 S 24 33 13 18 1017.4 1017.4 3.0
28/06:00am 12.3 7.8 11.5 95 0.4 S 26 35 14 19 1017.3 1017.3 3.0
28/05:46am 12.3 8.2 11.5 95 0.4 S 24 35 13 19 1017.1 1017.1 2.8
28/05:38am 12.3 7.8 11.4 94 0.5 S 26 37 14 20 1017.0 1017.0 2.8
28/05:30am 12.3 7.4 11.4 94 0.5 S 28 35 15 19 1016.9 1016.9 2.8
28/05:18am 12.3 7.8 11.5 95 0.4 S 26 30 14 16 1016.9 1016.9 2.6
28/05:00am 12.3 7.4 11.4 94 0.5 S 28 35 15 19 1016.7 1016.7 2.6
28/04:39am 12.3 7.7 11.0 92 0.7 S 26 35 14 19 1016.5 1016.5 2.4
28/04:30am 12.2 8.4 11.1 93 0.6 S 22 28 12 15 1016.5 1016.5 2.4
28/04:25am 12.2 8.0 11.1 93 0.6 S 24 35 13 19 1016.5 1016.5 2.4
28/04:24am 12.2 8.0 11.1 93 0.6 S 24 35 13 19 1016.5 1016.5 2.2
28/04:00am 12.1 7.6 11.3 95 0.4 S 26 35 14 19 1016.3 1016.3 1.8
28/03:45am 12.1 7.2 11.3 95 0.4 S 28 37 15 20 1016.1 1016.1 1.6
28/03:30am 12.2 7.4 11.6 96 0.3 S 28 35 15 19 1015.9 1015.9 1.6
28/03:07am 12.2 7.0 11.6 96 0.3 S 30 41 16 22 1015.8 1015.8 1.6
28/03:00am 12.1 7.3 11.5 96 0.3 S 28 37 15 20 1015.8 1015.8 1.6
28/02:30am 12.2 7.4 11.6 96 0.3 S 28 35 15 19 1015.8 1015.8 1.4
28/02:00am 12.3 7.9 11.7 96 0.3 S 26 37 14 20 1015.9 1015.9 1.2
28/01:44am 12.4 8.0 11.6 95 0.4 S 26 37 14 20 1015.9 1015.9 1.2
28/01:30am 12.5 7.7 11.7 95 0.4 S 28 33 15 18 1015.9 1015.9 1.2
28/01:00am 12.6 7.5 11.8 95 0.4 S 30 39 16 21 1015.9 1015.9 1.2
28/12:38am 12.5 8.2 11.9 96 0.3 S 26 37 14 20 1015.9 1015.9 1.2
28/12:30am 12.6 7.9 12.0 96 0.3 S 28 37 15 20 1015.9 1015.9 1.2
28/12:27am 12.6 8.3 12.0 96 0.3 S 26 35 14 19 1015.9 1015.9 1.2
28/12:00am 12.8 8.0 11.7 93 0.6 S 28 35 15 19 1015.8 1015.8 1.2
 
Date/Time
EST
Temp
°C
App
Temp
°C
Dew
Point
°C
Rel
Hum
%
Delta-T
°C
Wind Press
QNH
hPa
Press
MSL
hPa
Rain since
9am
mm
Dir  Spd
km/h
Gust
km/h
Spd
kts
Gust
kts
27/11:30pm 12.8 9.2 11.7 93 0.6 S 22 32 12 17 1015.8 1015.8 1.2
27/11:00pm 12.7 8.7 11.8 94 0.5 S 24 35 13 19 1015.6 1015.6 1.2
27/10:30pm 12.8 8.8 11.9 94 0.5 S 24 32 13 17 1015.5 1015.5 1.0
27/10:00pm 12.7 8.7 11.8 94 0.5 S 24 33 13 18 1015.3 1015.3 1.0
27/09:30pm 12.5 8.4 11.6 94 0.5 SSE 24 32 13 17 1015.2 1015.2 1.0
27/09:17pm 12.4 7.6 11.6 95 0.4 S 28 37 15 20 1015.2 1015.2 1.0
27/09:04pm 12.3 7.8 11.5 95 0.4 SSE 26 35 14 19 1015.2 1015.2 1.0
27/09:00pm 12.3 7.5 11.5 95 0.4 SSE 28 35 15 19 1015.2 1015.2 1.0
27/08:53pm 12.5 8.5 11.7 95 0.4 SSE 24 33 13 18 1015.2 1015.2 0.6
27/08:40pm 12.4 7.6 11.6 95 0.4 SSE 28 39 15 21 1015.1 1015.1 0.6
27/08:30pm 12.4 7.6 11.5 94 0.5 SSE 28 35 15 19 1015.1 1015.1 0.4
27/08:00pm 12.7 7.9 11.8 94 0.5 SSE 28 39 15 21 1014.9 1014.9 0.4
27/07:30pm 12.8 7.6 11.5 92 0.7 SSE 30 37 16 20 1014.5 1014.5 0.0
27/07:00pm 13.0 8.1 11.4 90 0.8 SSE 28 37 15 20 1014.2 1014.2 0.0
27/06:30pm 13.4 8.1 11.3 87 1.1 SSE 30 35 16 19 1013.9 1013.9 0.0
27/06:00pm 13.5 9.0 11.4 87 1.1 SSE 26 35 14 19 1013.5 1013.5 0.0
27/05:47pm 13.5 8.6 11.4 87 1.1 SSE 28 33 15 18 1013.4 1013.4 0.0
27/05:30pm 13.7 9.3 11.6 87 1.1 S 26 33 14 18 1013.1 1013.1 0.0
27/05:00pm 13.9 9.1 11.8 87 1.1 SSE 28 37 15 20 1012.6 1012.6 0.0
27/04:30pm 13.9 9.0 11.4 85 1.3 S 28 37 15 20 1012.6 1012.6 0.0
27/04:00pm 14.2 9.0 11.7 85 1.3 S 30 37 16 20 1012.1 1012.1 0.0
27/03:48pm 14.3 9.1 11.6 84 1.4 SSE 30 39 16 21 1012.1 1012.1 0.0
27/03:30pm 14.8 9.7 11.9 83 1.6 SSE 30 39 16 21 1012.1 1012.1 0.0
27/03:03pm 14.7 9.7 12.2 85 1.4 SSE 30 41 16 22 1012.2 1012.2 0.0
27/03:00pm 14.7 9.2 11.8 83 1.6 SSE 32 41 17 22 1012.2 1012.2 0.0
27/02:30pm 14.8 9.7 11.8 82 1.6 S 30 37 16 20 1012.2 1012.2 0.0
27/02:00pm 15.0 10.9 12.7 86 1.3 S 26 33 14 18 1012.2 1012.2 0.0
27/01:30pm 14.4 10.4 11.9 85 1.3 S 24 30 13 16 1012.4 1012.4 0.0
27/01:00pm 14.4 10.4 11.7 84 1.4 S 24 30 13 16 1012.7 1012.7 0.0
27/12:30pm 15.1 11.4 11.5 79 1.9 S 22 30 12 16 1012.8 1012.8 0.0
27/12:24pm 15.8 12.4 12.4 80 1.9 S 22 30 12 16 1012.8 1012.8 0.0
27/12:00pm 14.2 10.5 11.5 84 1.4 S 22 28 12 15 1013.1 1013.1 0.0
27/11:30am 15.1 12.0 12.2 83 1.6 S 20 26 11 14 1013.0 1013.0 0.0
27/11:29am 15.0 11.8 11.8 81 1.7 S 20 26 11 14 1013.0 1013.0 0.0
27/11:23am 15.2 12.1 12.3 83 1.6 S 20 24 11 13 1013.0 1013.0 0.0
27/11:12am 14.9 11.9 11.9 82 1.6 S 19 24 10 13 1013.1 1013.1 0.0
27/11:00am 14.7 11.8 12.2 85 1.4 SSW 19 24 10 13 1013.1 1013.1 0.0
27/10:36am 14.4 11.8 11.9 85 1.3 S 17 24 9 13 1013.2 1013.2 0.0
27/10:30am 14.3 12.0 11.8 85 1.3 S 15 20 8 11 1013.2 1013.2 0.0
27/10:00am 13.3 11.2 11.2 87 1.1 S 13 17 7 9 1013.4 1013.4 0.0
27/09:31am 13.3 11.3 11.5 89 1.0 SSE 13 17 7 9 1013.5 1013.5 0.0
27/09:30am 13.4 11.5 11.8 90 0.9 SSE 13 17 7 9 1013.5 1013.5 0.0
27/09:00am 13.0 11.3 11.2 89 0.9 SSE 11 15 6 8 1013.3 1013.3 0.6
27/08:30am 12.5 10.4 11.1 91 0.7 S 13 15 7 8 1013.2 1013.2 0.6
27/08:00am 11.9 11.0 11.3 96 0.3 SSW 7 9 4 5 1013.1 1013.1 0.6
27/07:30am 11.4 10.6 10.9 97 0.3 SSW 6 7 3 4 1013.0 1013.0 0.6
27/07:01am 11.0 9.9 10.5 97 0.3 WSW 7 9 4 5 1012.8 1012.8 0.6
27/07:00am 11.0 9.9 10.5 97 0.3 WSW 7 9 4 5 1012.8 1012.8 0.6
27/06:31am 10.7 10.8 10.1 96 0.3 CALM 0 0 0 0 1012.6 1012.6 0.4
27/06:30am 10.7 10.8 10.1 96 0.3 CALM 0 0 0 0 1012.6 1012.6 0.4
27/06:29am 10.7 10.7 9.9 95 0.4 CALM 0 0 0 0 1012.6 1012.6 0.4
27/06:00am 10.6 9.8 9.8 95 0.4 NNE 4 6 2 3 1012.3 1012.3 0.2
27/05:41am 10.7 9.6 9.8 94 0.5 NNE 6 7 3 4 1012.3 1012.3 0.0
27/05:38am 10.8 9.7 9.9 94 0.5 NNE 6 7 3 4 1012.3 1012.3 0.0
27/05:30am 10.7 9.6 9.8 94 0.5 N 6 6 3 3 1012.2 1012.2 0.0
27/05:00am 10.7 10.6 9.6 93 0.6 CALM 0 0 0 0 1012.0 1012.0 0.0
27/04:30am 10.6 10.5 9.5 93 0.6 CALM 0 0 0 0 1012.0 1012.0 0.0
27/04:00am 10.9 10.8 9.3 90 0.8 CALM 0 0 0 0 1012.0 1012.0 0.0
27/03:30am 11.1 10.9 9.0 87 1.0 CALM 0 0 0 0 1012.1 1012.1 0.0
27/03:00am 11.2 10.6 8.8 85 1.2 NE 2 6 1 3 1012.1 1012.1 0.0
27/02:30am 11.0 9.7 9.1 88 0.9 ENE 6 7 3 4 1012.2 1012.2 0.0
27/02:00am 10.7 9.4 9.3 91 0.7 ESE 6 9 3 5 1012.5 1012.5 0.0
27/01:30am 10.9 10.7 9.0 88 0.9 CALM 0 0 0 0 1012.7 1012.7 0.0
27/01:00am 10.9 10.6 8.8 87 1.0 CALM 0 0 0 0 1012.8 1012.8 0.0
27/12:30am 11.0 9.6 8.9 87 1.0 N 6 7 3 4 1013.0 1013.0 0.0
27/12:00am 11.3 9.2 8.3 82 1.5 N 9 11 5 6 1013.0 1013.0 0.0
 
Date/Time
EST
Temp
°C
App
Temp
°C
Dew
Point
°C
Rel
Hum
%
Delta-T
°C
Wind Press
QNH
hPa
Press
MSL
hPa
Rain since
9am
mm
Dir  Spd
km/h
Gust
km/h
Spd
kts
Gust
kts
26/11:30pm 11.1 9.6 8.3 83 1.4 N 6 7 3 4 1013.2 1013.2 0.0
26/11:00pm 11.3 9.1 8.0 80 1.6 N 9 15 5 8 1013.3 1013.3 0.0
26/10:30pm 11.5 8.6 8.2 80 1.6 NNE 13 15 7 8 1013.3 1013.3 0.0
26/10:00pm 11.5 8.6 8.2 80 1.6 NNE 13 15 7 8 1013.5 1013.5 0.0
26/09:30pm 11.6 8.8 8.5 81 1.5 NNE 13 15 7 8 1013.5 1013.5 0.0
26/09:00pm 11.6 8.4 8.5 81 1.5 NNE 15 19 8 10 1013.4 1013.4 0.0
26/08:30pm 11.4 8.7 8.8 84 1.3 NNE 13 17 7 9 1013.4 1013.4 0.0
26/08:00pm 11.6 8.5 9.0 84 1.3 NNE 15 19 8 10 1013.2 1013.2 0.0
26/07:30pm 12.1 8.7 9.1 82 1.5 NE 17 24 9 13 1013.0 1013.0 0.0
26/07:00pm 12.5 9.1 9.3 81 1.6 NE 17 22 9 12 1012.9 1012.9 0.0
26/06:30pm 12.9 9.6 9.5 80 1.7 NE 17 24 9 13 1012.7 1012.7 0.0
26/06:00pm 13.3 10.0 9.5 78 1.9 NNE 17 24 9 13 1012.6 1012.6 0.0
26/05:30pm 13.5 10.2 9.7 78 1.9 NE 17 26 9 14 1012.5 1012.5 0.0
26/05:00pm 14.1 10.6 10.3 78 2.0 NE 19 24 10 13 1012.3 1012.3 0.0
26/04:30pm 14.9 11.5 10.7 76 2.2 NE 19 26 10 14 1012.1 1012.1 0.0
26/04:00pm 15.0 11.7 11.0 77 2.1 NNE 19 24 10 13 1012.1 1012.1 0.0
26/03:30pm 14.8 11.7 10.4 75 2.3 N 17 24 9 13 1012.3 1012.3 0.0
26/03:00pm 15.2 12.1 10.2 72 2.6 NNE 17 24 9 13 1012.5 1012.5 0.0
26/02:30pm 14.9 10.0 9.9 72 2.6 NNE 26 33 14 18 1012.7 1012.7 0.0
26/02:00pm 15.7 11.8 9.4 66 3.3 N 20 26 11 14 1012.8 1012.8 0.0
26/01:30pm 15.7 11.0 9.1 65 3.4 NNE 24 32 13 17 1012.8 1012.8 0.0
26/01:00pm 15.9 11.9 9.1 64 3.5 NNE 20 28 11 15 1013.1 1013.1 0.0
26/12:30pm 15.5 12.2 9.6 68 3.1 NNE 17 26 9 14 1013.4 1013.4 0.0
26/12:00pm 15.9 12.2 9.6 66 3.3 NNE 19 24 10 13 1013.6 1013.6 0.0
26/11:30am 15.7 12.7 10.7 72 2.7 NNE 17 22 9 12 1014.0 1014.0 0.0
26/11:00am 14.6 11.4 10.0 74 2.4 NNE 17 20 9 11 1014.5 1014.5 0.0
26/10:30am 14.0 11.1 9.8 76 2.2 N 15 20 8 11 1014.7 1014.7 0.0
26/10:00am 14.1 11.4 10.5 79 1.9 N 15 19 8 10 1014.9 1014.9 0.0
26/09:30am 13.5 10.6 9.6 77 2.0 N 15 19 8 10 1015.2 1015.2 0.0
26/09:00am 13.7 10.1 9.9 78 2.0 N 19 22 10 12 1015.2 1015.2 0.0
26/08:30am 13.1 10.7 9.9 81 1.6 N 13 19 7 10 1015.2 1015.2 0.0
26/08:00am 12.5 12.5 9.9 84 1.3 CALM 0 0 0 0 1015.4 1015.4 0.0
26/07:30am 12.1 10.4 9.8 86 1.2 N 9 11 5 6 1015.3 1015.3 0.0
26/07:00am 11.5 10.2 9.8 89 0.9 NNE 7 9 4 5 1015.3 1015.3 0.0
26/06:30am 10.8 8.9 9.2 90 0.8 NNE 9 11 5 6 1015.2 1015.2 0.0
26/06:00am 10.4 9.8 9.0 91 0.7 ENE 2 9 1 5 1015.0 1015.0 0.0
26/05:30am 10.7 8.9 9.3 91 0.7 NE 9 11 5 6 1014.8 1014.8 0.0
26/05:00am 10.3 8.8 9.1 92 0.6 NE 7 9 4 5 1014.8 1014.8 0.0
26/04:30am 10.2 8.9 9.3 94 0.4 NNE 6 7 3 4 1014.8 1014.8 0.0
26/04:00am 10.3 9.8 9.4 94 0.4 N 2 7 1 4 1014.9 1014.9 0.0
26/03:30am 10.1 9.9 9.0 93 0.5 CALM 0 0 0 0 1014.9 1014.9 0.0
26/03:00am 10.0 9.8 8.9 93 0.5 CALM 0 0 0 0 1015.1 1015.1 0.0
26/02:30am 10.0 9.7 8.8 92 0.6 CALM 0 6 0 3 1015.3 1015.3 0.0
26/02:00am 10.3 8.9 8.7 90 0.8 NNW 6 9 3 5 1015.5 1015.5 0.0
26/01:30am 9.8 9.5 8.7 93 0.5 CALM 0 0 0 0 1015.8 1015.8 0.0
26/01:00am 9.8 9.5 8.6 92 0.6 CALM 0 0 0 0 1016.2 1016.2 0.0
26/12:30am 9.8 8.2 8.1 89 0.8 N 6 7 3 4 1016.5 1016.5 0.0
26/12:00am 9.5 9.1 8.1 91 0.7 CALM 0 2 0 1 1016.5 1016.5 0.0
 
Date/Time
EST
Temp
°C
App
Temp
°C
Dew
Point
°C
Rel
Hum
%
Delta-T
°C
Wind Press
QNH
hPa
Press
MSL
hPa
Rain since
9am
mm
Dir  Spd
km/h
Gust
km/h
Spd
kts
Gust
kts
25/11:30pm 10.1 8.6 8.4 89 0.8 NE 6 7 3 4 1016.3 1016.3 0.0
25/11:00pm 9.0 8.4 7.5 90 0.7 CALM 0 0 0 0 1016.5 1016.5 0.0
25/10:30pm 8.9 8.2 6.9 87 0.9 CALM 0 0 0 0 1016.6 1016.6 0.0
25/10:00pm 9.2 7.1 6.6 84 1.2 NNE 7 11 4 6 1016.6 1016.6 0.0
25/09:30pm 11.0 8.4 7.9 81 1.5 E 11 13 6 7 1016.5 1016.5 0.0
25/09:00pm 10.1 8.1 7.2 82 1.4 ENE 7 9 4 5 1016.5 1016.5 0.0
25/08:30pm 10.2 9.6 7.3 82 1.4 CALM 0 7 0 4 1016.5 1016.5 0.0
25/08:00pm 10.7 10.2 7.8 82 1.4 CALM 0 0 0 0 1016.0 1016.0 0.0
25/07:30pm 10.7 10.1 7.4 80 1.6 CALM 0 0 0 0 1015.9 1015.9 0.0
25/07:00pm 11.9 9.9 7.2 73 2.3 E 7 11 4 6 1015.4 1015.4 0.0
25/06:30pm 12.7 11.1 7.8 72 2.4 ENE 6 7 3 4 1015.2 1015.2 0.0
25/06:00pm 13.4 11.1 7.6 68 2.8 E 9 11 5 6 1015.0 1015.0 0.0
25/05:30pm 15.1 12.4 7.4 60 3.8 E 11 15 6 8 1014.6 1014.6 0.0
25/05:00pm 15.4 12.0 7.7 60 3.8 ESE 15 17 8 9 1014.4 1014.4 0.0
25/04:30pm 15.9 12.9 7.7 58 4.1 ESE 13 17 7 9 1014.4 1014.4 0.0
25/04:00pm 16.7 13.2 7.4 54 4.6 ESE 15 17 8 9 1014.4 1014.4 0.0
25/03:30pm 17.1 13.5 8.5 57 4.4 E 17 19 9 10 1014.4 1014.4 0.0
25/03:00pm 17.1 13.8 8.0 55 4.6 E 15 20 8 11 1014.5 1014.5 0.0
25/02:30pm 17.9 14.7 6.7 48 5.6 NW 13 24 7 13 1014.9 1014.9 0.0
25/02:00pm 17.4 13.4 6.6 49 5.3 W 17 28 9 15 1015.0 1015.0 0.0
25/01:30pm 17.6 13.2 7.6 52 5.0 W 20 30 11 16 1015.5 1015.5 0.0
25/01:00pm 17.7 14.2 7.4 51 5.2 WNW 15 24 8 13 1015.6 1015.6 0.0
25/12:30pm 16.1 13.5 7.6 57 4.2 SSE 11 26 6 14 1015.7 1015.7 0.0
25/12:00pm 15.5 11.8 6.2 54 4.5 SSW 15 22 8 12 1016.0 1016.0 0.0
25/11:30am 16.1 12.5 5.1 48 5.2 WNW 13 22 7 12 1016.1 1016.1 0.0
25/11:00am 15.4 12.4 5.9 53 4.6 NW 11 17 6 9 1016.1 1016.1 0.0

Other formats

Comma delimited format used in spreadsheet applications
http://www.bom.gov.au/fwo/IDV60801/IDV60801.94854.axf

JavaScript Object Notation format (JSON) in row-major order
http://www.bom.gov.au/fwo/IDV60801/IDV60801.94854.json

Data quality

Most of these data are generated automatically and are frequently updated. Quality checks on data are not normally performed. It is possible for incorrect values to appear. Refer to information at About Latest Weather Observations and please check the disclaimer before using these data.